Terminal Aerodrome Forecast
Issued by NWS Grand Forks, ND

Home | Current Version | Previous Version | Text Only | Print | Product List | Glossary On
Versions: 1 2 3 4 5 6 7 8 9 10 11 12 13 14 15 16 17 18 19 20 21 22 23
000
FTUS43 KFGF 172320
TAFFAR
TAF
KFAR 172320Z 1800/1824 34007KT P6SM SKC
     FM180200 VRB03KT P6SM FEW250
     FM181000 VRB03KT P6SM BKN110
     FM182100 24004KT P6SM SCT200=

USA.gov is the U.S. government's official web portal to all federal, state and local government web resources and services.